createdAt,value
2022-11-28T00:02:02.984Z,93.80
2022-11-28T00:07:05.561Z,94.17
2022-11-28T00:12:08.221Z,93.93
2022-11-28T00:17:10.680Z,93.63
2022-11-28T00:22:13.168Z,93.53
2022-11-28T00:27:15.640Z,93.55
2022-11-28T00:32:20.551Z,93.69
2022-11-28T00:37:23.041Z,93.93
2022-11-28T00:42:25.574Z,94.29
2022-11-28T00:47:28.067Z,94.01
2022-11-28T00:52:32.719Z,93.62
2022-11-28T00:57:35.218Z,93.59
2022-11-28T01:02:37.820Z,93.53
2022-11-28T01:07:42.435Z,93.90
2022-11-28T01:12:45.055Z,94.18
2022-11-28T01:17:47.593Z,94.07
2022-11-28T01:22:50.080Z,93.60
2022-11-28T01:27:52.591Z,93.97
2022-11-28T01:32:55.115Z,94.01
2022-11-28T01:37:57.564Z,93.63
2022-11-28T01:43:00.086Z,93.68
2022-11-28T01:48:03.825Z,93.44
2022-11-28T01:53:09.295Z,93.47
2022-11-28T01:58:12.684Z,93.63
2022-11-28T02:03:20.838Z,93.57
2022-11-28T02:08:25.427Z,93.62
2022-11-28T02:13:58.216Z,93.66
2022-11-28T02:19:25.368Z,93.70
2022-11-28T02:24:30.794Z,93.70
2022-11-28T02:29:36.172Z,93.97
2022-11-28T02:34:54.584Z,93.95
2022-11-28T02:40:05.576Z,93.58
2022-11-28T02:45:13.594Z,93.25
2022-11-28T02:50:22.059Z,93.49
2022-11-28T02:55:26.350Z,92.86
2022-11-28T03:00:32.005Z,93.05
2022-11-28T03:05:46.108Z,92.95
2022-11-28T03:10:54.482Z,93.14
2022-11-28T03:16:07.640Z,93.03
2022-11-28T03:21:17.739Z,93.15
2022-11-28T03:26:34.923Z,93.11
2022-11-28T03:31:43.088Z,93.05
2022-11-28T03:36:52.320Z,92.39
2022-11-28T03:41:59.741Z,92.70
2022-11-28T03:47:05.590Z,92.50
2022-11-28T03:52:14.764Z,92.84
2022-11-28T03:57:25.100Z,93.09
2022-11-28T04:02:34.993Z,93.21
2022-11-28T04:07:45.924Z,92.95
2022-11-28T04:12:54.481Z,92.55
2022-11-28T04:18:00.624Z,92.50
2022-11-28T04:23:09.732Z,93.09
2022-11-28T04:28:18.574Z,93.59
2022-11-28T04:33:24.751Z,93.49
2022-11-28T04:38:29.596Z,93.43
2022-11-28T04:43:37.201Z,93.54
2022-11-28T04:48:39.750Z,93.58
2022-11-28T04:53:45.321Z,93.06
2022-11-28T04:58:50.506Z,93.43
2022-11-28T05:03:54.134Z,93.57
2022-11-28T05:08:56.720Z,93.44
2022-11-28T05:13:59.355Z,92.79
2022-11-28T05:19:01.918Z,93.29
2022-11-28T05:24:04.661Z,93.50
2022-11-28T05:29:07.119Z,93.55
2022-11-28T05:34:09.605Z,93.28
2022-11-28T05:39:12.233Z,93.37
2022-11-28T05:44:16.850Z,93.65
2022-11-28T05:49:21.555Z,93.66
2022-11-28T05:54:24.277Z,93.55
2022-11-28T05:59:26.798Z,92.79
2022-11-28T06:04:29.337Z,93.54
2022-11-28T06:09:31.917Z,93.46
2022-11-28T06:14:34.499Z,93.24
2022-11-28T06:19:37.186Z,92.84
2022-11-28T06:24:39.635Z,93.05
2022-11-28T06:29:42.439Z,93.38
2022-11-28T06:34:45.109Z,93.31
2022-11-28T06:39:47.657Z,93.21
2022-11-28T06:44:50.380Z,93.37
2022-11-28T06:49:52.967Z,93.08
2022-11-28T06:54:57.728Z,93.05
2022-11-28T07:00:00.342Z,93.57
2022-11-28T07:05:03.175Z,93.62
2022-11-28T07:10:06.569Z,93.74
2022-11-28T07:15:09.847Z,93.33
2022-11-28T07:20:12.878Z,93.61
2022-11-28T07:25:15.970Z,93.33
2022-11-28T07:30:19.966Z,93.32
2022-11-28T07:35:22.476Z,93.25
2022-11-28T07:40:25.020Z,93.64
2022-11-28T07:45:41.955Z,94.39
2022-11-28T07:50:50.298Z,93.85
2022-11-28T07:55:52.916Z,93.63
2022-11-28T08:00:55.431Z,93.99
2022-11-28T08:06:02.868Z,94.10
2022-11-28T08:11:08.265Z,93.39
2022-11-28T08:16:14.514Z,93.57
2022-11-28T08:21:20.041Z,93.40
2022-11-28T08:26:28.913Z,92.65
2022-11-28T08:31:35.065Z,92.49
2022-11-28T08:36:40.020Z,92.61
2022-11-28T08:41:42.729Z,92.73
2022-11-28T08:46:45.313Z,93.30
2022-11-28T08:51:47.848Z,93.30
2022-11-28T08:56:50.771Z,92.10
2022-11-28T09:01:54.249Z,92.10
2022-11-28T09:06:56.799Z,91.85
2022-11-28T09:11:59.307Z,91.97
2022-11-28T09:17:02.069Z,91.68
2022-11-28T09:22:04.596Z,91.12
2022-11-28T09:27:07.032Z,90.60
2022-11-28T09:32:09.518Z,91.04
2022-11-28T09:37:12.158Z,90.67
2022-11-28T09:42:27.473Z,90.40
2022-11-28T09:47:32.698Z,89.79
2022-11-28T09:52:47.456Z,89.28
2022-11-28T09:57:52.239Z,89.45
2022-11-28T10:03:00.588Z,89.48
2022-11-28T10:08:13.920Z,89.56
2022-11-28T10:13:24.391Z,89.44
2022-11-28T10:18:35.062Z,88.89
2022-11-28T10:23:43.809Z,88.27
2022-11-28T10:28:50.316Z,88.35
2022-11-28T10:34:17.384Z,87.69
2022-11-28T10:39:19.982Z,86.58
2022-11-28T10:44:31.915Z,85.73
2022-11-28T10:49:50.260Z,86.53
2022-11-28T10:55:07.305Z,87.07
2022-11-28T11:00:13.737Z,87.11
2022-11-28T11:05:36.525Z,86.50
2022-11-28T11:10:46.603Z,86.25
2022-11-28T11:16:02.297Z,86.32
2022-11-28T11:21:10.137Z,86.42
2022-11-28T11:26:18.500Z,86.59
2022-11-28T11:31:28.264Z,85.95
2022-11-28T11:36:34.533Z,86.46
2022-11-28T11:41:39.999Z,86.34
2022-11-28T11:46:48.710Z,86.39
2022-11-28T11:51:59.327Z,85.98
2022-11-28T11:57:30.838Z,86.10
2022-11-28T12:02:35.105Z,86.62
2022-11-28T12:07:48.720Z,86.04
2022-11-28T12:12:51.255Z,85.73
2022-11-28T12:17:59.625Z,86.60
2022-11-28T12:23:04.706Z,86.27
2022-11-28T12:28:12.238Z,86.52
2022-11-28T12:33:18.827Z,86.33
2022-11-28T12:38:36.499Z,86.57
2022-11-28T12:43:42.589Z,86.83
2022-11-28T12:48:53.673Z,86.81
2022-11-28T12:54:06.279Z,86.86
2022-11-28T12:59:14.985Z,87.52
2022-11-28T13:04:27.197Z,88.01
2022-11-28T13:09:34.457Z,88.22
2022-11-28T13:14:40.828Z,88.39
2022-11-28T13:19:52.067Z,88.26
2022-11-28T13:26:05.551Z,88.01
2022-11-28T13:31:22.935Z,88.70
2022-11-28T13:42:28.789Z,88.51
2022-11-28T13:47:34.425Z,87.98
2022-11-28T13:52:42.376Z,87.28
2022-11-28T13:57:44.882Z,86.91
2022-11-28T14:02:58.837Z,86.51
2022-11-28T14:08:03.908Z,86.73
2022-11-28T14:13:29.658Z,86.99
2022-11-28T14:18:57.122Z,87.79
2022-11-28T14:24:01.079Z,88.30
2022-11-28T14:29:06.049Z,88.48
2022-11-28T14:34:31.397Z,88.98
2022-11-28T14:39:34.881Z,89.36
2022-11-28T14:44:45.610Z,89.62
2022-11-28T14:49:48.929Z,89.65
2022-11-28T14:54:53.473Z,89.71
2022-11-28T14:59:58.491Z,89.71
2022-11-28T15:05:04.891Z,89.91
2022-11-28T15:10:16.254Z,90.05
2022-11-28T15:15:20.376Z,89.75
2022-11-28T15:20:29.788Z,89.73
2022-11-28T15:25:37.145Z,89.75
2022-11-28T15:30:46.149Z,89.93
2022-11-28T15:36:13.007Z,90.00
2022-11-28T15:41:21.096Z,89.84
2022-11-28T15:46:29.482Z,90.01
2022-11-28T15:51:35.456Z,90.43
2022-11-28T15:56:37.951Z,90.46
2022-11-28T16:01:40.690Z,90.35
2022-11-28T16:06:50.270Z,90.46
2022-11-28T16:11:54.271Z,90.49
2022-11-28T16:16:59.287Z,90.67
2022-11-28T16:22:18.928Z,90.83
2022-11-28T16:27:27.298Z,90.80
2022-11-28T16:32:37.872Z,91.12
2022-11-28T16:37:40.477Z,91.10
2022-11-28T16:42:52.295Z,91.01
2022-11-28T16:48:00.243Z,91.08
2022-11-28T16:53:03.606Z,91.39
2022-11-28T16:58:11.428Z,91.29
2022-11-28T17:03:19.788Z,91.47
2022-11-28T17:08:28.981Z,91.09
2022-11-28T17:13:33.075Z,91.10
2022-11-28T17:18:35.526Z,91.40
2022-11-28T17:23:38.920Z,91.60
2022-11-28T17:28:41.501Z,91.56
2022-11-28T17:33:44.983Z,91.45
2022-11-28T17:38:47.574Z,91.70
2022-11-28T17:43:50.087Z,91.76
2022-11-28T17:48:52.611Z,91.52
2022-11-28T17:53:55.094Z,91.68
2022-11-28T17:58:57.613Z,91.76
2022-11-28T18:04:00.151Z,91.91
2022-11-28T18:09:11.392Z,91.60
2022-11-28T18:14:17.249Z,91.82
2022-11-28T18:19:22.255Z,91.73
2022-11-28T18:24:24.741Z,91.59
2022-11-28T18:29:27.202Z,91.35
2022-11-28T18:34:29.769Z,91.73
2022-11-28T18:39:33.073Z,91.82
2022-11-28T18:44:35.598Z,91.74
2022-11-28T18:49:38.097Z,91.68
2022-11-28T18:54:40.579Z,91.83
2022-11-28T18:59:49.926Z,91.66
2022-11-28T19:04:55.705Z,91.81
2022-11-28T19:09:58.193Z,91.57
2022-11-28T19:15:02.659Z,91.55
2022-11-28T19:20:06.244Z,91.85
2022-11-28T19:25:08.923Z,91.86
2022-11-28T19:30:11.850Z,91.78
2022-11-28T19:35:14.499Z,91.93
2022-11-28T19:40:17.013Z,92.03
2022-11-28T19:45:19.992Z,91.89
2022-11-28T19:50:22.520Z,91.82
2022-11-28T19:55:25.057Z,92.00
2022-11-28T20:00:27.563Z,92.22
2022-11-28T20:05:31.636Z,91.80
2022-11-28T20:10:36.423Z,91.61
2022-11-28T20:15:38.873Z,91.72
2022-11-28T20:20:41.406Z,91.58
2022-11-28T20:25:43.883Z,91.64
2022-11-28T20:30:46.363Z,91.50
2022-11-28T20:35:48.912Z,91.25
2022-11-28T20:40:51.397Z,91.14
2022-11-28T20:45:54.082Z,91.07
2022-11-28T20:50:56.782Z,90.91
2022-11-28T20:56:02.784Z,90.86
2022-11-28T21:01:05.731Z,90.97
2022-11-28T21:06:08.407Z,90.97
2022-11-28T21:11:30.574Z,90.99
2022-11-28T21:16:37.503Z,91.18
2022-11-28T21:21:42.684Z,90.83
2022-11-28T21:26:51.063Z,90.72
2022-11-28T21:31:55.931Z,90.70
2022-11-28T21:36:58.501Z,90.53
2022-11-28T21:42:02.163Z,90.38
2022-11-28T21:47:05.435Z,90.41
2022-11-28T21:52:09.327Z,90.64
2022-11-28T21:57:11.817Z,90.35
2022-11-28T22:02:14.942Z,90.09
2022-11-28T22:07:17.713Z,90.06
2022-11-28T22:12:20.319Z,89.78
2022-11-28T22:17:22.841Z,89.85
2022-11-28T22:22:27.427Z,89.89
2022-11-28T22:27:31.989Z,90.18
2022-11-28T22:32:34.554Z,90.15
2022-11-28T22:37:37.106Z,89.73
2022-11-28T22:42:39.597Z,89.70
2022-11-28T22:47:42.116Z,89.52
2022-11-28T22:52:44.663Z,89.52
2022-11-28T22:57:47.253Z,89.46
2022-11-28T23:02:49.893Z,89.34
2022-11-28T23:07:52.659Z,89.18
2022-11-28T23:12:57.511Z,88.88
2022-11-28T23:18:00.043Z,88.90
2022-11-28T23:23:02.543Z,88.68
2022-11-28T23:28:05.021Z,88.54
2022-11-28T23:33:07.590Z,88.38
2022-11-28T23:38:10.112Z,88.56
2022-11-28T23:43:12.623Z,88.60
2022-11-28T23:48:16.390Z,88.39
2022-11-28T23:53:19.065Z,88.09
2022-11-28T23:58:24.061Z,88.38
